createdAt,value
2023-05-21T00:01:08.539Z,70.51
2023-05-21T00:06:09.973Z,70.44
2023-05-21T00:11:11.508Z,70.77
2023-05-21T00:16:13.115Z,70.98
2023-05-21T00:21:16.640Z,71.13
2023-05-21T00:26:17.945Z,71.29
2023-05-21T00:31:19.797Z,71.36
2023-05-21T00:36:23.372Z,71.29
2023-05-21T00:41:25.413Z,71.61
2023-05-21T00:46:28.034Z,71.61
2023-05-21T00:51:29.819Z,72.04
2023-05-21T00:56:31.946Z,71.61
2023-05-21T01:01:36.263Z,72.03
2023-05-21T01:06:38.189Z,71.77
2023-05-21T01:12:39.452Z,72.00
2023-05-21T01:19:00.518Z,72.00
2023-05-21T01:25:21.562Z,72.28
2023-05-21T01:31:42.833Z,72.70
2023-05-21T01:38:06.625Z,73.83
2023-05-21T01:44:37.733Z,73.55
2023-05-21T01:50:58.782Z,73.88
2023-05-21T01:56:22.517Z,74.24
2023-05-21T02:01:23.795Z,74.88
2023-05-21T02:06:25.242Z,75.61
2023-05-21T02:11:26.594Z,75.16
2023-05-21T02:16:28.096Z,75.17
2023-05-21T02:21:29.486Z,74.99
2023-05-21T02:26:30.807Z,75.00
2023-05-21T02:31:32.108Z,75.08
2023-05-21T02:36:35.607Z,75.16
2023-05-21T02:41:37.586Z,75.67
2023-05-21T02:46:39.456Z,75.79
2023-05-21T02:51:41.421Z,76.11
2023-05-21T02:56:42.850Z,75.78
2023-05-21T03:01:44.600Z,75.84
2023-05-21T03:06:46.086Z,75.81
2023-05-21T03:11:48.080Z,75.63
2023-05-21T03:16:50.912Z,75.65
2023-05-21T03:21:53.395Z,76.23
2023-05-21T03:26:56.516Z,76.18
2023-05-21T03:32:00.857Z,76.36
2023-05-21T03:37:02.687Z,75.99
2023-05-21T03:42:04.627Z,75.99
2023-05-21T03:47:19.952Z,75.93
2023-05-21T03:52:22.361Z,76.03
2023-05-21T03:57:23.718Z,75.72
2023-05-21T04:02:26.562Z,75.61
2023-05-21T04:07:29.382Z,75.45
2023-05-21T04:12:31.104Z,75.07
2023-05-21T04:17:34.121Z,74.56
2023-05-21T04:22:36.721Z,74.00
2023-05-21T04:27:38.059Z,73.61
2023-05-21T04:32:39.498Z,73.26
2023-05-21T04:37:42.266Z,73.22
2023-05-21T04:42:46.198Z,72.55
2023-05-21T04:47:48.175Z,71.93
2023-05-21T04:52:49.732Z,71.57
2023-05-21T04:57:52.243Z,70.47
2023-05-21T05:02:53.865Z,70.04
2023-05-21T05:07:57.628Z,70.27
2023-05-21T05:12:59.447Z,69.63
2023-05-21T05:18:02.615Z,68.52
2023-05-21T05:23:04.383Z,68.26
2023-05-21T05:28:06.127Z,66.90
2023-05-21T05:33:07.854Z,66.41
2023-05-21T05:38:09.990Z,66.32
2023-05-21T05:43:11.668Z,65.06
2023-05-21T05:48:13.303Z,63.64
2023-05-21T05:54:14.520Z,60.99
2023-05-21T06:00:35.712Z,60.83
2023-05-21T06:06:57.726Z,57.75
2023-05-21T06:13:18.780Z,57.22
2023-05-21T06:19:39.961Z,55.69
2023-05-21T06:25:01.203Z,54.14
2023-05-21T06:30:02.754Z,54.12
2023-05-21T06:35:05.657Z,51.08
2023-05-21T06:40:07.463Z,50.11
2023-05-21T06:45:09.233Z,48.84
2023-05-21T06:50:13.594Z,47.68
2023-05-21T06:55:15.296Z,47.23
2023-05-21T07:00:37.779Z,46.81
2023-05-21T07:05:39.515Z,44.08
2023-05-21T07:10:41.842Z,43.90
2023-05-21T07:15:43.994Z,42.07
2023-05-21T07:20:45.922Z,39.71
2023-05-21T07:32:54.778Z,37.97
2023-05-21T07:39:40.016Z,39.69
2023-05-21T07:46:31.818Z,36.90
2023-05-21T07:53:23.663Z,37.20
2023-05-21T07:59:48.164Z,36.78
2023-05-21T08:06:10.300Z,37.38
2023-05-21T08:12:52.038Z,35.50
2023-05-21T08:19:19.696Z,37.43
2023-05-21T08:25:19.859Z,36.52
2023-05-21T08:31:26.973Z,34.95
2023-05-21T08:37:57.042Z,33.23
2023-05-21T08:45:02.824Z,31.26
2023-05-21T08:52:04.823Z,31.15
2023-05-21T08:58:31.607Z,30.98
2023-05-21T09:05:06.018Z,33.18
2023-05-21T09:11:30.022Z,32.46
2023-05-21T09:18:06.070Z,31.89
2023-05-21T09:24:36.563Z,33.34
2023-05-21T09:31:23.546Z,32.10
2023-05-21T09:37:51.249Z,33.19
2023-05-21T09:44:36.479Z,32.35
2023-05-21T09:51:51.099Z,31.68
2023-05-21T09:58:24.459Z,30.49
2023-05-21T10:04:41.141Z,28.82
2023-05-21T10:10:50.459Z,29.63
2023-05-21T10:16:52.659Z,28.54
2023-05-21T10:22:23.728Z,26.92
2023-05-21T10:28:10.982Z,26.59
2023-05-21T10:34:17.354Z,27.19
2023-05-21T10:40:44.275Z,26.02
2023-05-21T10:47:56.685Z,25.09
2023-05-21T10:54:19.636Z,26.99
2023-05-21T11:01:01.207Z,23.96
2023-05-21T11:07:28.990Z,24.26
2023-05-21T11:13:52.017Z,24.12
2023-05-21T11:20:40.357Z,23.45
2023-05-21T11:27:11.561Z,22.95
2023-05-21T11:33:31.565Z,21.84
2023-05-21T11:40:09.140Z,24.05
2023-05-21T11:46:38.134Z,24.18
2023-05-21T11:53:13.163Z,21.62
2023-05-21T11:59:43.612Z,23.29
2023-05-21T12:06:29.081Z,22.54
2023-05-21T12:13:31.246Z,20.49
2023-05-21T12:20:33.210Z,22.68
2023-05-21T12:26:54.668Z,23.28
2023-05-21T12:33:18.386Z,22.54
2023-05-21T12:39:45.104Z,21.75
2023-05-21T12:46:14.377Z,21.28
2023-05-21T12:52:38.704Z,20.35
2023-05-21T12:58:55.871Z,20.94
2023-05-21T13:04:57.629Z,21.09
2023-05-21T13:10:49.244Z,21.17
2023-05-21T13:16:09.398Z,21.09
2023-05-21T13:21:53.659Z,20.36
2023-05-21T13:27:19.035Z,20.85
2023-05-21T13:33:32.187Z,20.83
2023-05-21T13:39:03.206Z,20.85
2023-05-21T13:44:11.399Z,19.87
2023-05-21T13:49:21.516Z,20.06
2023-05-21T13:54:27.249Z,20.49
2023-05-21T13:59:41.125Z,20.95
2023-05-21T14:05:14.149Z,20.76
2023-05-21T14:10:47.680Z,19.74
2023-05-21T14:16:51.257Z,23.33
2023-05-21T14:22:53.991Z,21.23
2023-05-21T14:29:16.125Z,22.40
2023-05-21T14:36:00.520Z,22.27
2023-05-21T14:42:24.500Z,22.94
2023-05-21T14:49:18.592Z,23.07
2023-05-21T14:55:43.006Z,23.71
2023-05-21T15:02:24.665Z,23.62
2023-05-21T15:08:46.146Z,23.95
2023-05-21T15:15:16.181Z,24.46
2023-05-21T15:21:37.557Z,25.62
2023-05-21T15:27:59.732Z,27.19
2023-05-21T15:34:24.070Z,28.23
2023-05-21T15:40:04.628Z,29.06
2023-05-21T15:46:28.652Z,30.25
2023-05-21T15:52:52.386Z,30.79
2023-05-21T15:58:57.452Z,31.46
2023-05-21T16:05:25.763Z,32.46
2023-05-21T16:11:44.798Z,33.68
2023-05-21T16:17:40.171Z,34.95
2023-05-21T16:24:04.991Z,35.66
2023-05-21T16:30:29.463Z,36.30
2023-05-21T16:36:02.495Z,36.28
2023-05-21T16:42:06.925Z,36.73
2023-05-21T16:48:40.411Z,37.07
2023-05-21T16:54:04.864Z,37.79
2023-05-21T17:00:09.172Z,37.87
2023-05-21T17:05:57.678Z,38.09
2023-05-21T17:11:55.565Z,38.75
2023-05-21T17:18:25.494Z,39.57
2023-05-21T17:25:17.123Z,39.56
2023-05-21T17:31:41.192Z,39.76
2023-05-21T17:38:03.268Z,40.08
2023-05-21T17:44:29.453Z,40.62
2023-05-21T17:50:50.796Z,40.96
2023-05-21T17:57:15.455Z,41.13
2023-05-21T18:02:46.532Z,41.49
2023-05-21T18:08:17.863Z,41.96
2023-05-21T18:13:33.770Z,42.35
2023-05-21T18:19:23.932Z,42.68
2023-05-21T18:26:22.342Z,43.27
2023-05-21T18:33:23.232Z,43.71
2023-05-21T18:40:12.632Z,44.15
2023-05-21T18:46:38.494Z,44.63
2023-05-21T18:53:10.488Z,45.01
2023-05-21T18:59:34.651Z,45.19
2023-05-21T19:05:49.733Z,45.73
2023-05-21T19:11:07.419Z,46.07
2023-05-21T19:16:23.798Z,46.29
2023-05-21T19:21:39.576Z,46.37
2023-05-21T19:27:52.117Z,46.48
2023-05-21T19:34:16.260Z,46.61
2023-05-21T19:40:10.009Z,47.13
2023-05-21T19:45:26.348Z,47.11
2023-05-21T19:50:42.322Z,47.40
2023-05-21T19:56:44.640Z,47.76
2023-05-21T20:03:27.737Z,48.19
2023-05-21T20:09:44.099Z,48.46
2023-05-21T20:15:00.708Z,48.49
2023-05-21T20:20:09.759Z,48.86
2023-05-21T20:25:22.821Z,49.23
2023-05-21T20:31:10.837Z,49.68
2023-05-21T20:36:43.003Z,50.55
2023-05-21T20:42:20.689Z,51.29
2023-05-21T20:47:42.001Z,52.24
2023-05-21T20:53:28.544Z,51.56
2023-05-21T21:00:10.289Z,51.78
2023-05-21T21:06:08.932Z,51.93
2023-05-21T21:11:49.680Z,52.20
2023-05-21T21:18:21.875Z,52.01
2023-05-21T21:24:43.227Z,52.26
2023-05-21T21:31:04.762Z,52.31
2023-05-21T21:36:32.780Z,52.18
2023-05-21T21:42:41.033Z,52.53
2023-05-21T21:49:29.363Z,52.56
2023-05-21T21:55:09.236Z,52.73
2023-05-21T22:02:11.423Z,52.87
2023-05-21T22:08:44.837Z,53.27
2023-05-21T22:15:01.664Z,53.26
2023-05-21T22:21:28.669Z,53.32
2023-05-21T22:27:51.304Z,53.60
2023-05-21T22:34:28.637Z,53.84
2023-05-21T22:40:55.019Z,54.08
2023-05-21T22:47:51.516Z,54.23
2023-05-21T22:53:31.720Z,54.37
2023-05-21T22:59:51.981Z,54.49
2023-05-21T23:06:01.654Z,54.66
2023-05-21T23:12:27.554Z,54.78
2023-05-21T23:18:19.663Z,54.86
2023-05-21T23:24:46.225Z,54.90
2023-05-21T23:30:02.039Z,55.11
2023-05-21T23:35:13.879Z,55.33
2023-05-21T23:40:22.238Z,55.62
2023-05-21T23:46:36.669Z,55.85
2023-05-21T23:53:02.523Z,55.93
2023-05-21T23:59:30.410Z,55.99
